Blaine, Kansas
Current Conditions -  °F | °C
As of 11:52 PM on Friday 28 Nov 2014 (Local Time) from KMHK Reporting Station
Clear Clear  
Wind Chill: 47°   Ceiling: Unl
Heat Index: 49°   Visibility: 10mi
Dew Point: 38°   Wind: 5mph
Humidity: 66%   Direction: 190°S
Pressure: 29.7"   Gusts: NA
Location:  39.4392°N, 96.4104°W
Report Text: KMHK 290552Z AUTO 19004KT 10SM CLR 09/03 A2970 RMK AO2 SLP056 T00940033 10128 20089 401891011 58012 TSNO
Loading
Personal Weather Stations






























Interactive Weather Map New forecast layout! Learn more

10-Day Weather Forecast

Advertisements
Track Severe Weather on mobile